createdAt,value
2024-01-24T00:04:23.796Z,18.10
2024-01-24T00:14:34.123Z,17.50
2024-01-24T00:19:39.781Z,22.30
2024-01-24T00:24:45.402Z,14.10
2024-01-24T00:29:51.316Z,18.70
2024-01-24T00:34:57.127Z,21.00
2024-01-24T00:40:04.057Z,16.10
2024-01-24T00:45:10.920Z,16.30
2024-01-24T00:50:16.665Z,15.10
2024-01-24T00:55:22.303Z,17.90
2024-01-24T01:00:28.080Z,11.60
2024-01-24T01:05:33.744Z,12.80
2024-01-24T01:10:39.410Z,13.40
2024-01-24T01:15:45.551Z,13.80
2024-01-24T01:20:51.183Z,14.40
2024-01-24T01:25:57.119Z,9.00
2024-01-24T01:31:02.800Z,11.50
2024-01-24T01:36:17.738Z,11.50
2024-01-24T01:41:28.751Z,7.80
2024-01-24T01:46:34.944Z,12.10
2024-01-24T01:51:41.280Z,5.30
2024-01-24T01:56:47.045Z,7.60
2024-01-24T02:01:54.699Z,7.10
2024-01-24T02:07:02.262Z,7.50
2024-01-24T02:12:08.627Z,11.50
2024-01-24T02:17:14.266Z,8.30
2024-01-24T02:22:20.083Z,5.70
2024-01-24T02:27:25.705Z,9.30
2024-01-24T02:32:31.404Z,6.20
2024-01-24T02:37:37.055Z,5.60
2024-01-24T02:42:42.684Z,10.50
2024-01-24T02:47:48.385Z,8.00
2024-01-24T02:52:54.073Z,8.50
2024-01-24T02:57:59.747Z,8.00
2024-01-24T03:03:05.610Z,7.20
2024-01-24T03:08:13.099Z,4.90
2024-01-24T03:13:19.623Z,6.20
2024-01-24T03:18:25.436Z,5.60
2024-01-24T03:23:31.633Z,5.80
2024-01-24T03:28:37.501Z,6.90
2024-01-24T03:33:43.689Z,7.60
2024-01-24T03:43:53.846Z,6.80
2024-01-24T03:48:59.816Z,7.00
2024-01-24T03:54:06.097Z,7.30
2024-01-24T03:59:11.736Z,6.10
2024-01-24T04:04:17.697Z,7.40
2024-01-24T04:09:23.543Z,6.30
2024-01-24T04:14:29.232Z,5.30
2024-01-24T04:19:35.027Z,7.80
2024-01-24T04:24:40.837Z,5.00
2024-01-24T05:09:25.152Z,10.70
2024-01-24T05:14:30.754Z,9.60
2024-01-24T05:19:36.820Z,9.60
2024-01-24T05:24:44.989Z,8.20
2024-01-24T05:29:50.700Z,4.80
2024-01-24T05:34:56.540Z,5.50
2024-01-24T05:40:02.388Z,8.30
2024-01-24T05:45:09.587Z,6.50
2024-01-24T05:50:15.937Z,5.80
2024-01-24T05:55:21.816Z,9.50
2024-01-24T06:00:27.637Z,5.30
2024-01-24T06:05:34.363Z,7.50
2024-01-24T06:15:44.344Z,3.30
2024-01-24T06:20:50.104Z,4.00
2024-01-24T06:25:56.084Z,5.20
2024-01-24T06:31:02.849Z,4.70
2024-01-24T06:41:14.149Z,3.70
2024-01-24T06:46:19.763Z,5.20
2024-01-24T06:51:25.550Z,7.40
2024-01-24T06:56:31.944Z,4.00
2024-01-24T07:01:37.648Z,5.40
2024-01-24T07:06:44.197Z,5.30
2024-01-24T07:11:50.507Z,6.10
2024-01-24T07:16:56.143Z,4.00
2024-01-24T07:22:04.057Z,7.10
2024-01-24T07:27:10.704Z,4.90
2024-01-24T07:32:16.639Z,5.10
2024-01-24T07:37:22.262Z,5.90
2024-01-24T07:42:28.001Z,6.60
2024-01-24T07:47:33.840Z,7.10
2024-01-24T07:52:42.456Z,5.10
2024-01-24T07:57:49.815Z,4.90
2024-01-24T08:02:55.674Z,5.00
2024-01-24T08:08:02.866Z,6.30
2024-01-24T08:13:11.761Z,7.50
2024-01-24T08:18:18.115Z,7.20
2024-01-24T08:23:31.719Z,7.80
2024-01-24T08:28:45.076Z,8.30
2024-01-24T08:33:52.531Z,6.80
2024-01-24T08:38:58.591Z,5.50
2024-01-24T08:44:05.966Z,7.20
2024-01-24T08:49:14.026Z,8.90
2024-01-24T08:54:21.178Z,6.00
2024-01-24T08:59:27.118Z,6.50
2024-01-24T09:04:33.494Z,7.30
2024-01-24T09:09:42.151Z,6.20
2024-01-24T09:14:49.218Z,6.30
2024-01-24T09:19:55.129Z,9.00
2024-01-24T09:25:02.271Z,7.50
2024-01-24T09:30:11.586Z,7.10
2024-01-24T09:35:17.756Z,7.10
2024-01-24T09:40:23.999Z,7.30
2024-01-24T09:45:32.831Z,6.30
2024-01-24T09:50:39.881Z,6.40
2024-01-24T09:55:47.098Z,6.00
2024-01-24T10:00:53.799Z,11.00
2024-01-24T10:06:00.442Z,7.90
2024-01-24T10:11:06.460Z,9.10
2024-01-24T10:16:12.081Z,10.10
2024-01-24T10:21:18.547Z,7.10
2024-01-24T10:31:28.937Z,6.30
2024-01-24T10:36:37.853Z,7.00
2024-01-24T10:41:50.495Z,7.40
2024-01-24T10:46:57.552Z,6.80
2024-01-24T10:52:04.004Z,5.20
2024-01-24T10:57:13.891Z,5.60
2024-01-24T11:02:19.943Z,6.30
2024-01-24T11:07:31.533Z,5.80
2024-01-24T11:12:37.317Z,6.10
2024-01-24T11:17:46.533Z,6.00
2024-01-24T11:22:52.306Z,4.90
2024-01-24T11:28:01.081Z,5.40
2024-01-24T11:33:07.885Z,5.00
2024-01-24T11:38:37.137Z,5.00
2024-01-24T11:43:46.373Z,4.80
2024-01-24T11:48:52.288Z,6.10
2024-01-24T11:54:04.746Z,3.80
2024-01-24T11:59:10.404Z,8.00
2024-01-24T12:04:16.559Z,6.10
2024-01-24T12:09:24.445Z,6.30
2024-01-24T12:14:30.414Z,5.60
2024-01-24T12:19:37.920Z,6.10
2024-01-24T12:24:44.701Z,7.40
2024-01-24T12:29:54.907Z,5.30
2024-01-24T12:35:04.160Z,6.00
2024-01-24T12:40:13.756Z,6.40
2024-01-24T12:45:19.705Z,6.10
2024-01-24T12:50:26.576Z,7.00
2024-01-24T12:55:32.538Z,8.10
2024-01-24T13:00:38.449Z,8.00
2024-01-24T13:05:47.391Z,9.20
2024-01-24T13:10:57.313Z,8.40
2024-01-24T13:16:04.433Z,12.30
2024-01-24T13:21:10.034Z,6.30
2024-01-24T13:26:15.733Z,6.80
2024-01-24T13:31:21.568Z,9.30
2024-01-24T13:36:27.443Z,8.00
2024-01-24T13:41:33.382Z,12.00
2024-01-24T13:46:39.297Z,9.30
2024-01-24T13:51:45.997Z,15.50
2024-01-24T13:56:51.852Z,12.00
2024-01-24T14:02:00.665Z,9.70
2024-01-24T14:07:08.172Z,7.50
2024-01-24T14:12:13.917Z,8.60
2024-01-24T14:17:19.583Z,9.30
2024-01-24T14:22:26.300Z,8.80
2024-01-24T14:27:32.039Z,8.80
2024-01-24T14:32:39.617Z,9.20
2024-01-24T14:37:45.864Z,8.30
2024-01-24T14:42:51.746Z,5.90
2024-01-24T14:47:57.741Z,8.70
2024-01-24T14:53:03.405Z,5.20
2024-01-24T14:58:09.342Z,9.10
2024-01-24T15:03:15.142Z,11.20
2024-01-24T15:08:23.326Z,7.80
2024-01-24T15:13:30.292Z,9.70
2024-01-24T15:18:36.459Z,9.80
2024-01-24T15:23:42.201Z,10.10
2024-01-24T15:28:47.910Z,10.20
2024-01-24T15:33:54.222Z,11.50
2024-01-24T15:44:04.749Z,7.10
2024-01-24T15:49:10.536Z,6.60
2024-01-24T15:54:16.259Z,13.10
2024-01-24T15:59:22.484Z,12.40
2024-01-24T16:04:28.650Z,17.70
2024-01-24T16:09:34.841Z,8.80
2024-01-24T16:14:41.505Z,11.00
2024-01-24T16:19:48.147Z,18.20
2024-01-24T16:29:59.126Z,15.80
2024-01-24T16:40:14.293Z,16.90
2024-01-24T16:45:20.226Z,20.10
2024-01-24T16:50:25.920Z,20.10
2024-01-24T16:55:32.382Z,20.10
2024-01-24T17:05:42.652Z,28.90
2024-01-24T17:10:48.606Z,24.20
2024-01-24T17:15:55.004Z,20.80
2024-01-24T17:21:00.929Z,29.50
2024-01-24T17:26:06.714Z,14.10
2024-01-24T17:31:14.401Z,13.80
2024-01-24T17:36:20.029Z,9.50
2024-01-24T17:41:26.989Z,7.00
2024-01-24T17:46:33.013Z,8.40
2024-01-24T17:51:39.181Z,8.60
2024-01-24T17:56:44.868Z,8.70
2024-01-24T18:01:52.796Z,9.50
2024-01-24T18:06:58.829Z,10.70
2024-01-24T18:12:04.722Z,8.10
2024-01-24T18:17:10.327Z,13.50
2024-01-24T18:22:16.691Z,9.40
2024-01-24T18:32:26.770Z,11.00
2024-01-24T18:37:32.985Z,14.10
2024-01-24T18:42:40.907Z,16.70
2024-01-24T18:47:48.641Z,16.60
2024-01-24T18:52:54.537Z,15.40
2024-01-24T18:58:00.631Z,17.10
2024-01-24T19:03:07.706Z,17.10
2024-01-24T19:08:14.565Z,12.30
2024-01-24T19:13:24.899Z,12.20
2024-01-24T19:18:31.108Z,12.80
2024-01-24T19:23:36.884Z,12.40
2024-01-24T19:28:42.993Z,11.30
2024-01-24T19:33:52.038Z,8.80
2024-01-24T19:38:59.762Z,9.70
2024-01-24T19:44:05.866Z,9.20
2024-01-24T19:49:13.650Z,9.80
2024-01-24T19:54:21.165Z,13.40
2024-01-24T19:59:27.140Z,13.10
2024-01-24T20:04:36.687Z,7.20
2024-01-24T20:09:45.156Z,15.30
2024-01-24T20:14:51.112Z,12.80
2024-01-24T20:19:56.785Z,10.20
2024-01-24T20:25:02.479Z,7.20
2024-01-24T20:30:09.636Z,12.10
2024-01-24T20:35:15.945Z,10.50
2024-01-24T20:40:21.815Z,8.90
2024-01-24T20:45:28.014Z,9.90
2024-01-24T20:50:33.875Z,8.70
2024-01-24T20:55:39.517Z,7.20
2024-01-24T21:00:45.288Z,7.70
2024-01-24T21:05:51.916Z,6.80
2024-01-24T21:11:03.657Z,11.20
2024-01-24T21:16:11.020Z,10.70
2024-01-24T21:26:20.792Z,12.40
2024-01-24T21:31:32.591Z,9.60
2024-01-24T21:36:47.615Z,8.50
2024-01-24T21:41:55.405Z,8.30
2024-01-24T21:47:05.521Z,9.10
2024-01-24T21:52:11.794Z,8.30
2024-01-24T21:57:17.424Z,8.30
2024-01-24T22:02:23.112Z,7.70
2024-01-24T22:07:29.010Z,6.40
2024-01-24T22:12:34.958Z,6.80
2024-01-24T22:17:42.251Z,10.70
2024-01-24T22:22:48.066Z,9.50
2024-01-24T22:27:53.916Z,8.90
2024-01-24T22:32:59.862Z,12.20
2024-01-24T22:38:05.648Z,7.60
2024-01-24T22:43:11.751Z,7.00
2024-01-24T22:48:18.894Z,8.90
2024-01-24T22:53:24.888Z,8.00
2024-01-24T22:58:30.833Z,7.30
2024-01-24T23:03:36.656Z,7.20
2024-01-24T23:08:42.810Z,5.10
2024-01-24T23:13:48.706Z,6.40
2024-01-24T23:18:55.661Z,7.50
2024-01-24T23:24:02.360Z,8.10
2024-01-24T23:34:13.554Z,5.70
2024-01-24T23:39:19.288Z,14.10
2024-01-24T23:44:25.101Z,8.00
2024-01-24T23:49:31.043Z,13.10
2024-01-24T23:54:36.851Z,12.20
2024-01-24T23:59:42.627Z,12.60
